Time;durP1;ratioP1;P1;durP2;ratioP2;P2;SDS_P1;SDS_P2;PMS_P1;PMS_P2;Temp;Humidity;BMP_temperature;BMP_pressure;BME280_temperature;BME280_humidity;BME280_pressure;Samples;Min_cycle;Max_cycle;Signal;HPM_P1;HPM_P2
2023/07/12 00:01:12;;;;;;;0.00;0.00;;;22.00;99.90;;;;;;5053079;28;20185;-65
2023/07/12 00:03:37;;;;;;;0.00;0.00;;;21.90;99.90;;;;;;5053366;28;20343;-65
2023/07/12 00:06:11;;;;;;;0.00;0.00;;;21.70;99.90;;;;;;5052997;28;20300;-65
2023/07/12 00:08:36;;;;;;;0.05;0.05;;;21.70;99.90;;;;;;5052278;28;20188;-65
2023/07/12 00:11:02;;;;;;;0.00;0.00;;;21.60;99.90;;;;;;5053306;28;20177;-65
2023/07/12 00:13:27;;;;;;;0.00;0.00;;;21.70;99.90;;;;;;5053354;28;20184;-65
2023/07/12 00:15:53;;;;;;;0.00;0.00;;;21.80;99.90;;;;;;5052181;28;20265;-65
2023/07/12 00:18:26;;;;;;;0.00;0.00;;;21.90;99.90;;;;;;5052933;28;20283;-65
2023/07/12 00:20:52;;;;;;;0.00;0.00;;;22.00;99.90;;;;;;5052989;28;20268;-65
2023/07/12 00:23:19;;;;;;;0.00;0.00;;;22.00;99.90;;;;;;5053371;28;20193;-65
2023/07/12 00:25:46;;;;;;;0.00;0.00;;;22.10;99.90;;;;;;5053165;28;20213;-65
2023/07/12 00:28:27;;;;;;;0.00;0.00;;;22.20;99.90;;;;;;5052606;28;20217;-64
2023/07/12 00:30:55;;;;;;;0.00;0.00;;;22.20;99.90;;;;;;5056992;28;20736;-65
2023/07/12 00:33:22;;;;;;;0.00;0.00;;;22.20;99.90;;;;;;5052897;28;20231;-65
2023/07/12 00:35:48;;;;;;;0.00;0.00;;;22.20;99.90;;;;;;5052645;28;20185;-65
2023/07/12 00:38:20;;;;;;;0.00;0.00;;;22.20;99.90;;;;;;5052981;28;20201;-65
2023/07/12 00:41:04;;;;;;;0.00;0.00;;;22.20;99.90;;;;;;5052820;28;20265;-65
2023/07/12 00:43:38;;;;;;;0.00;0.00;;;22.10;99.90;;;;;;5052452;28;20181;-65
2023/07/12 00:46:37;;;;;;;0.00;0.00;;;22.00;99.90;;;;;;5051425;28;20224;-65
2023/07/12 00:49:03;;;;;;;0.00;0.00;;;22.00;99.90;;;;;;5052372;28;20215;-65
2023/07/12 00:51:53;;;;;;;0.00;0.00;;;22.00;99.90;;;;;;5052723;28;20372;-65
2023/07/12 00:54:22;;;;;;;0.00;0.00;;;22.00;99.90;;;;;;5052517;28;20606;-65
2023/07/12 00:56:48;;;;;;;0.00;0.00;;;21.90;99.90;;;;;;5052684;28;20235;-65
2023/07/12 00:59:29;;;;;;;0.00;0.00;;;21.90;99.90;;;;;;5052584;28;20185;-65
2023/07/12 01:02:00;;;;;;;0.00;0.00;;;21.80;99.90;;;;;;5051203;28;20188;-65
2023/07/12 01:04:36;;;;;;;0.00;0.00;;;21.60;99.90;;;;;;5047092;28;20195;-65
2023/07/12 01:07:02;;;;;;;0.00;0.00;;;21.50;99.90;;;;;;5032286;28;20193;-65
2023/07/12 01:09:28;;;;;;;0.00;0.00;;;21.50;99.90;;;;;;5036890;28;20211;-65
2023/07/12 01:11:56;;;;;;;0.05;0.05;;;21.50;99.90;;;;;;5049701;28;20795;-65
2023/07/12 01:14:22;;;;;;;0.00;0.00;;;21.50;99.90;;;;;;5051450;28;20271;-65
2023/07/12 01:16:56;;;;;;;0.00;0.00;;;21.50;99.90;;;;;;5051818;28;20658;-65
2023/07/12 01:19:21;;;;;;;0.00;0.00;;;21.60;99.90;;;;;;5052303;28;20257;-65
2023/07/12 01:21:50;;;;;;;0.00;0.00;;;21.60;99.90;;;;;;5051845;28;20228;-64
2023/07/12 01:24:16;;;;;;;0.00;0.00;;;21.50;99.90;;;;;;5052411;28;20185;-64
2023/07/12 01:26:48;;;;;;;0.00;0.00;;;21.50;99.90;;;;;;5052380;28;20636;-64
2023/07/12 01:29:14;;;;;;;0.00;0.00;;;21.40;99.90;;;;;;5052452;28;20252;-65
2023/07/12 01:31:41;;;;;;;0.00;0.00;;;21.40;99.90;;;;;;5052698;28;20185;-65
2023/07/12 01:34:07;;;;;;;0.00;0.00;;;21.50;99.90;;;;;;5052114;28;20255;-65
2023/07/12 01:36:33;;;;;;;0.00;0.00;;;21.60;99.90;;;;;;5052160;28;20178;-64
2023/07/12 01:39:01;;;;;;;0.00;0.00;;;21.60;99.90;;;;;;5052618;28;20185;-65
2023/07/12 01:41:26;;;;;;;0.00;0.00;;;21.60;99.90;;;;;;5052148;28;20178;-64
2023/07/12 01:43:52;;;;;;;0.38;0.32;;;21.50;99.90;;;;;;5052358;28;20183;-65
2023/07/12 01:46:18;;;;;;;0.00;0.00;;;21.60;99.90;;;;;;5051755;28;20228;-65
2023/07/12 01:48:44;;;;;;;0.00;0.00;;;21.70;99.90;;;;;;5052352;28;20717;-65
2023/07/12 01:51:10;;;;;;;0.00;0.00;;;21.80;99.90;;;;;;5051973;28;20527;-65
2023/07/12 01:53:36;;;;;;;0.00;0.00;;;21.80;99.90;;;;;;5052174;28;20212;-64
2023/07/12 01:56:03;;;;;;;0.00;0.00;;;21.80;99.90;;;;;;5052106;28;20208;-64
2023/07/12 01:58:29;;;;;;;0.00;0.00;;;21.80;99.90;;;;;;5051904;28;20192;-64
2023/07/12 02:00:55;;;;;;;0.00;0.00;;;21.70;99.90;;;;;;5051913;28;20185;-64
2023/07/12 02:03:22;;;;;;;0.00;0.00;;;21.80;99.90;;;;;;5051827;28;20174;-64
2023/07/12 02:05:48;;;;;;;0.00;0.00;;;21.70;99.90;;;;;;5050915;28;20244;-64
2023/07/12 02:08:14;;;;;;;0.00;0.00;;;21.60;99.90;;;;;;5051909;28;20177;-64
2023/07/12 02:10:40;;;;;;;0.00;0.00;;;21.50;99.90;;;;;;5042047;28;20185;-64
2023/07/12 02:13:06;;;;;;;0.00;0.00;;;21.50;99.90;;;;;;5051831;28;20182;-64
2023/07/12 02:15:31;;;;;;;0.00;0.00;;;21.50;99.90;;;;;;5051542;28;20259;-64
2023/07/12 02:17:57;;;;;;;0.00;0.00;;;21.40;99.90;;;;;;5051684;28;20213;-64
2023/07/12 02:20:23;;;;;;;0.00;0.00;;;21.30;99.90;;;;;;5051662;28;20264;-64
2023/07/12 02:22:50;;;;;;;0.00;0.00;;;21.30;99.90;;;;;;5051557;28;20510;-64
2023/07/12 02:25:16;;;;;;;0.00;0.00;;;21.20;99.90;;;;;;5051427;28;20795;-64
2023/07/12 02:27:44;;;;;;;0.00;0.00;;;21.10;99.90;;;;;;5051196;28;20229;-64
2023/07/12 02:30:12;;;;;;;0.00;0.00;;;21.10;99.90;;;;;;5051584;28;20188;-64
2023/07/12 02:32:37;;;;;;;0.05;0.05;;;21.10;99.90;;;;;;5051383;28;20173;-64
2023/07/12 02:35:03;;;;;;;0.00;0.00;;;21.10;99.90;;;;;;5051720;28;20181;-64
2023/07/12 02:37:29;;;;;;;0.00;0.00;;;21.10;99.90;;;;;;5051300;28;20181;-65
2023/07/12 02:39:55;;;;;;;0.00;0.00;;;21.20;99.90;;;;;;5051427;28;20216;-64
2023/07/12 02:42:21;;;;;;;0.00;0.00;;;21.30;99.90;;;;;;5050992;28;20664;-64
2023/07/12 02:44:46;;;;;;;0.00;0.00;;;21.40;99.90;;;;;;5051330;28;20173;-64
2023/07/12 02:47:12;;;;;;;0.00;0.00;;;21.40;99.90;;;;;;5051162;28;20732;-64
2023/07/12 02:49:39;;;;;;;0.00;0.00;;;21.40;99.90;;;;;;5051439;28;20698;-64
2023/07/12 02:52:06;;;;;;;0.00;0.00;;;21.50;99.90;;;;;;5051348;28;20220;-64
2023/07/12 02:54:32;;;;;;;0.00;0.00;;;21.50;99.90;;;;;;5051361;28;20181;-64
2023/07/12 02:56:59;;;;;;;0.00;0.00;;;21.60;99.90;;;;;;5050815;28;20173;-64
2023/07/12 02:59:24;;;;;;;0.00;0.00;;;21.70;99.90;;;;;;5051145;28;20181;-64
2023/07/12 03:01:50;;;;;;;0.00;0.00;;;21.80;99.90;;;;;;5050938;28;20177;-65
2023/07/12 03:04:16;;;;;;;0.00;0.00;;;21.80;99.90;;;;;;5051035;28;20180;-65
2023/07/12 03:06:42;;;;;;;0.10;0.10;;;21.90;99.90;;;;;;5051024;28;20288;-65
2023/07/12 03:09:08;;;;;;;0.00;0.00;;;21.90;99.90;;;;;;5054903;28;20599;-64
2023/07/12 03:11:34;;;;;;;0.00;0.00;;;21.90;99.90;;;;;;5049183;28;20475;-65
2023/07/12 03:13:59;;;;;;;0.00;0.00;;;21.90;99.90;;;;;;5055108;28;20731;-65
2023/07/12 03:16:25;;;;;;;0.00;0.00;;;21.90;99.90;;;;;;5054757;28;20189;-64
2023/07/12 03:18:52;;;;;;;0.00;0.00;;;21.90;99.90;;;;;;5054650;28;20186;-65
2023/07/12 03:21:18;;;;;;;0.00;0.00;;;21.90;99.90;;;;;;5054267;28;20645;-64
2023/07/12 03:23:44;;;;;;;0.00;0.00;;;21.90;99.90;;;;;;5054668;28;20680;-64
2023/07/12 03:26:10;;;;;;;0.00;0.00;;;21.90;99.90;;;;;;5053787;28;20205;-65
2023/07/12 03:28:36;;;;;;;0.00;0.00;;;21.70;99.90;;;;;;5054522;28;20221;-64
2023/07/12 03:31:04;;;;;;;0.00;0.00;;;21.70;99.90;;;;;;5055246;28;20181;-64
2023/07/12 03:33:30;;;;;;;0.00;0.00;;;21.60;99.90;;;;;;5058864;28;20177;-64
2023/07/12 03:35:56;;;;;;;0.05;0.05;;;21.50;99.90;;;;;;5054527;28;20354;-64
2023/07/12 03:38:25;;;;;;;0.00;0.00;;;21.50;99.90;;;;;;5054722;28;20186;-64
2023/07/12 03:40:54;;;;;;;0.00;0.00;;;21.50;99.90;;;;;;5054211;28;20639;-64
2023/07/12 03:43:20;;;;;;;0.00;0.00;;;21.50;99.90;;;;;;5054713;28;20182;-62
2023/07/12 03:45:45;;;;;;;0.00;0.00;;;21.50;99.90;;;;;;5054526;28;20540;-63
2023/07/12 03:48:11;;;;;;;0.00;0.00;;;21.40;99.90;;;;;;5054948;28;20284;-63
2023/07/12 03:50:45;;;;;;;0.00;0.00;;;21.40;99.90;;;;;;5053264;28;20192;-63
2023/07/12 03:53:11;;;;;;;0.00;0.00;;;21.40;99.90;;;;;;5052717;28;20173;-64
2023/07/12 03:55:44;;;;;;;0.00;0.00;;;21.30;99.90;;;;;;5053907;28;20181;-62
2023/07/12 03:58:12;;;;;;;0.00;0.00;;;21.30;99.90;;;;;;5054010;28;20232;-61
2023/07/12 04:00:46;;;;;;;0.00;0.00;;;21.40;99.90;;;;;;5054422;28;20173;-61
2023/07/12 04:03:12;;;;;;;0.00;0.00;;;21.50;99.90;;;;;;5054422;28;20213;-62
2023/07/12 04:05:39;;;;;;;0.00;0.00;;;21.60;99.90;;;;;;5053853;28;20278;-61
2023/07/12 04:08:06;;;;;;;0.00;0.00;;;21.60;99.90;;;;;;5053556;28;20607;-62
2023/07/12 04:10:32;;;;;;;0.32;0.32;;;21.60;99.90;;;;;;5053731;28;20189;-63
2023/07/12 04:12:58;;;;;;;0.00;0.00;;;21.60;99.90;;;;;;5051530;28;20174;-62
2023/07/12 04:15:23;;;;;;;0.00;0.00;;;21.60;99.90;;;;;;5053881;28;20185;-62
2023/07/12 04:17:49;;;;;;;0.05;0.05;;;21.50;99.90;;;;;;5053770;28;20178;-63
2023/07/12 04:20:15;;;;;;;0.00;0.00;;;21.60;99.90;;;;;;5052334;28;20677;-63
2023/07/12 04:22:40;;;;;;;0.00;0.00;;;21.60;99.90;;;;;;5036932;28;20196;-63
2023/07/12 04:25:08;;;;;;;0.00;0.00;;;21.70;99.90;;;;;;5052962;28;20209;-63
2023/07/12 04:27:37;;;;;;;0.00;0.00;;;21.70;99.90;;;;;;5051977;28;20217;-63
2023/07/12 04:30:05;;;;;;;0.00;0.00;;;21.80;99.90;;;;;;5053510;28;20178;-63
2023/07/12 04:32:30;;;;;;;0.00;0.00;;;21.90;99.90;;;;;;5053172;28;20169;-63
2023/07/12 04:34:56;;;;;;;0.00;0.00;;;22.00;99.90;;;;;;5053553;28;20180;-63
2023/07/12 04:37:22;;;;;;;0.00;0.00;;;22.10;99.90;;;;;;5052848;28;20197;-63
2023/07/12 04:39:47;;;;;;;0.00;0.00;;;22.30;99.90;;;;;;5053281;28;20181;-63
2023/07/12 04:42:13;;;;;;;0.00;0.00;;;22.60;99.90;;;;;;5053269;28;20265;-63
2023/07/12 04:44:38;;;;;;;0.00;0.00;;;22.90;99.90;;;;;;5052939;28;20185;-63
2023/07/12 04:47:06;;;;;;;0.00;0.00;;;23.10;99.90;;;;;;5053029;28;20636;-63
2023/07/12 04:49:32;;;;;;;0.05;0.05;;;23.20;99.90;;;;;;5052395;28;20616;-63
2023/07/12 04:51:57;;;;;;;0.00;0.00;;;23.30;99.90;;;;;;5053014;28;20189;-63
2023/07/12 04:54:23;;;;;;;0.00;0.00;;;23.40;99.90;;;;;;5052915;28;20648;-63
2023/07/12 04:56:49;;;;;;;0.00;0.00;;;23.40;99.90;;;;;;5053093;28;20204;-63
2023/07/12 04:59:15;;;;;;;0.00;0.00;;;23.50;99.90;;;;;;5052383;28;20189;-63
2023/07/12 05:01:40;;;;;;;0.00;0.00;;;23.50;99.90;;;;;;5052434;28;20174;-63
2023/07/12 05:04:06;;;;;;;0.00;0.00;;;23.60;99.90;;;;;;5052917;28;20234;-63
2023/07/12 05:06:32;;;;;;;0.00;0.00;;;23.70;99.90;;;;;;5052650;28;20212;-63
2023/07/12 05:08:58;;;;;;;0.00;0.00;;;23.80;99.90;;;;;;5052847;28;20173;-63
2023/07/12 05:11:23;;;;;;;0.00;0.00;;;23.80;99.90;;;;;;5052658;28;20181;-63
2023/07/12 05:13:49;;;;;;;0.75;0.10;;;23.90;99.90;;;;;;5052798;28;20264;-63
2023/07/12 05:16:14;;;;;;;0.00;0.00;;;24.00;99.90;;;;;;5051150;28;20880;-63
2023/07/12 05:18:40;;;;;;;0.00;0.00;;;24.10;99.90;;;;;;5052769;28;20636;-63
2023/07/12 05:21:05;;;;;;;0.00;0.00;;;24.10;99.90;;;;;;5059139;28;20185;-63
2023/07/12 05:23:31;;;;;;;0.10;0.10;;;24.00;99.90;;;;;;5052732;28;20223;-64
2023/07/12 05:25:57;;;;;;;0.10;0.10;;;24.00;99.90;;;;;;5052156;28;20231;-63
2023/07/12 05:28:22;;;;;;;0.00;0.00;;;24.00;99.90;;;;;;5052364;28;20219;-64
2023/07/12 05:30:48;;;;;;;0.00;0.00;;;24.10;99.90;;;;;;5051981;28;20235;-63
2023/07/12 05:33:15;;;;;;;0.00;0.00;;;24.00;99.90;;;;;;5052452;28;20633;-63
2023/07/12 05:35:40;;;;;;;0.00;0.00;;;23.90;99.90;;;;;;5052465;28;20197;-63
2023/07/12 05:38:07;;;;;;;0.00;0.00;;;23.90;99.90;;;;;;5052301;28;20517;-63
2023/07/12 05:40:32;;;;;;;0.00;0.00;;;24.00;99.90;;;;;;5050491;28;20641;-63
2023/07/12 05:42:58;;;;;;;0.00;0.00;;;24.10;99.90;;;;;;5052106;28;20308;-64
2023/07/12 05:45:24;;;;;;;0.00;0.00;;;24.20;99.90;;;;;;5052071;28;20247;-63
2023/07/12 05:47:50;;;;;;;0.25;0.25;;;24.30;99.90;;;;;;5052109;28;20166;-63
2023/07/12 05:50:18;;;;;;;0.00;0.00;;;24.30;99.90;;;;;;5052180;28;20188;-63
2023/07/12 05:52:44;;;;;;;0.00;0.00;;;24.30;99.90;;;;;;5051639;28;20178;-63
2023/07/12 05:55:11;;;;;;;0.00;0.00;;;24.40;99.90;;;;;;5051437;28;20178;-63
2023/07/12 05:57:36;;;;;;;0.00;0.00;;;24.50;99.90;;;;;;5051199;28;20209;-64
2023/07/12 06:00:03;;;;;;;0.00;0.00;;;24.60;99.90;;;;;;5051212;28;20243;-63
2023/07/12 06:02:29;;;;;;;0.00;0.00;;;24.70;99.90;;;;;;5051405;28;20207;-63
2023/07/12 06:04:55;;;;;;;0.00;0.00;;;24.60;99.90;;;;;;5051264;28;20192;-64
2023/07/12 06:07:20;;;;;;;0.00;0.00;;;24.70;99.90;;;;;;5051238;28;20486;-64
2023/07/12 06:09:46;;;;;;;0.00;0.00;;;24.70;99.90;;;;;;5050590;28;20187;-63
2023/07/12 06:12:12;;;;;;;0.00;0.00;;;24.70;99.90;;;;;;5050563;28;20653;-63
2023/07/12 06:14:37;;;;;;;0.00;0.00;;;24.70;99.90;;;;;;5051529;28;20185;-64
2023/07/12 06:17:05;;;;;;;0.00;0.00;;;24.70;99.90;;;;;;5051196;28;20561;-63
2023/07/12 06:19:30;;;;;;;0.00;0.00;;;24.80;99.90;;;;;;5051321;28;20181;-63
2023/07/12 06:21:56;;;;;;;0.00;0.00;;;24.90;99.90;;;;;;5051311;28;20184;-63
2023/07/12 06:24:22;;;;;;;0.00;0.00;;;25.00;99.90;;;;;;5051530;28;20208;-63
2023/07/12 06:26:47;;;;;;;0.00;0.00;;;25.10;99.90;;;;;;5051339;28;20259;-63
2023/07/12 06:29:13;;;;;;;0.00;0.00;;;25.00;99.90;;;;;;5051695;28;20263;-63
2023/07/12 06:31:41;;;;;;;0.00;0.00;;;25.20;99.90;;;;;;5051575;28;20272;-63
2023/07/12 06:34:08;;;;;;;0.00;0.00;;;25.10;99.90;;;;;;5051390;28;20264;-63
2023/07/12 06:36:34;;;;;;;0.00;0.00;;;24.90;99.90;;;;;;5051096;28;20660;-63
2023/07/12 06:38:59;;;;;;;0.00;0.00;;;24.90;99.90;;;;;;5051373;28;20174;-63
2023/07/12 06:41:25;;;;;;;0.00;0.00;;;25.00;99.90;;;;;;5051477;28;20509;-63
2023/07/12 06:43:50;;;;;;;0.00;0.00;;;24.90;99.90;;;;;;5049767;28;20184;-63
2023/07/12 06:46:16;;;;;;;0.00;0.00;;;24.80;99.90;;;;;;5051652;28;20688;-63
2023/07/12 06:48:42;;;;;;;0.00;0.00;;;24.70;99.90;;;;;;5050550;28;20697;-63
2023/07/12 06:51:08;;;;;;;0.00;0.00;;;24.60;99.90;;;;;;5051552;28;20705;-63
2023/07/12 06:53:33;;;;;;;0.00;0.00;;;24.60;99.90;;;;;;5051580;28;20185;-61
2023/07/12 06:55:59;;;;;;;0.00;0.00;;;24.60;99.90;;;;;;5051591;28;20269;-60
2023/07/12 06:58:24;;;;;;;0.00;0.00;;;24.60;99.90;;;;;;5051525;28;20177;-63
2023/07/12 07:00:50;;;;;;;0.00;0.00;;;24.60;99.90;;;;;;5051151;28;20181;-63
2023/07/12 07:03:16;;;;;;;0.00;0.00;;;24.90;99.90;;;;;;5051554;28;20231;-63
2023/07/12 07:05:47;;;;;;;0.00;0.00;;;25.10;99.90;;;;;;5051466;28;20296;-62
2023/07/12 07:08:18;;;;;;;0.22;0.22;;;25.70;99.90;;;;;;5051659;28;20180;-62
2023/07/12 07:10:48;;;;;;;0.25;0.25;;;26.50;99.90;;;;;;5051248;28;20276;-62
2023/07/12 07:13:14;;;;;;;0.00;0.00;;;27.10;99.90;;;;;;5050651;28;20173;-63
2023/07/12 07:15:39;;;;;;;0.00;0.00;;;27.80;99.90;;;;;;5050632;28;20530;-63
2023/07/12 07:18:05;;;;;;;0.00;0.00;;;28.10;99.90;;;;;;5050228;28;20272;-62
2023/07/12 07:20:30;;;;;;;0.00;0.00;;;28.60;99.90;;;;;;5050013;28;20181;-62
2023/07/12 07:22:56;;;;;;;0.00;0.00;;;28.70;99.60;;;;;;5050998;28;20182;-62
2023/07/12 07:25:22;;;;;;;0.00;0.00;;;29.20;98.90;;;;;;5050699;28;20214;-62
2023/07/12 07:27:48;;;;;;;0.00;0.00;;;29.40;97.10;;;;;;5050782;28;20270;-63
2023/07/12 07:30:14;;;;;;;0.00;0.00;;;29.30;96.80;;;;;;5050512;28;20178;-62
2023/07/12 07:32:39;;;;;;;0.00;0.00;;;29.50;96.70;;;;;;5050910;28;20272;-62
2023/07/12 07:35:05;;;;;;;0.00;0.00;;;29.40;96.00;;;;;;5050904;28;20185;-63
2023/07/12 07:37:31;;;;;;;0.00;0.00;;;29.50;96.10;;;;;;5050607;28;20177;-62
2023/07/12 07:39:58;;;;;;;0.00;0.00;;;29.70;95.50;;;;;;5050984;28;20212;-63
2023/07/12 07:42:23;;;;;;;0.00;0.00;;;29.80;95.80;;;;;;5050819;28;20264;-63
2023/07/12 07:44:49;;;;;;;0.00;0.00;;;30.40;95.40;;;;;;5050790;28;20184;-62
2023/07/12 07:47:14;;;;;;;0.00;0.00;;;30.90;93.60;;;;;;5049579;28;20215;-62
2023/07/12 07:49:40;;;;;;;0.00;0.00;;;31.00;92.70;;;;;;5050645;28;20247;-62
2023/07/12 07:52:06;;;;;;;0.00;0.00;;;31.00;92.30;;;;;;5051030;28;20185;-62
2023/07/12 07:54:31;;;;;;;0.00;0.00;;;31.00;91.50;;;;;;5053256;28;20219;-62
2023/07/12 07:56:57;;;;;;;0.00;0.00;;;31.00;92.00;;;;;;5054496;28;20185;-62
2023/07/12 07:59:23;;;;;;;0.00;0.00;;;31.00;91.50;;;;;;5054604;28;20193;-62
2023/07/12 08:01:49;;;;;;;0.00;0.00;;;31.10;91.30;;;;;;5054068;28;20185;-62
2023/07/12 08:04:14;;;;;;;0.00;0.00;;;31.40;91.10;;;;;;5054664;28;20256;-62
2023/07/12 08:06:40;;;;;;;0.00;0.00;;;31.80;91.00;;;;;;5054357;28;20768;-62
2023/07/12 08:09:06;;;;;;;0.00;0.00;;;32.00;90.20;;;;;;5054351;28;20173;-62
2023/07/12 08:11:32;;;;;;;0.00;0.00;;;32.40;88.30;;;;;;5054491;28;20180;-62
2023/07/12 08:13:57;;;;;;;0.00;0.00;;;32.80;87.80;;;;;;5054457;28;20184;-62
2023/07/12 08:16:26;;;;;;;0.00;0.00;;;33.20;85.70;;;;;;5054387;28;20177;-62
2023/07/12 08:18:52;;;;;;;0.00;0.00;;;33.00;84.60;;;;;;5053745;28;20185;-62
2023/07/12 08:21:18;;;;;;;0.00;0.00;;;32.60;83.90;;;;;;5054149;28;20169;-63
2023/07/12 08:23:43;;;;;;;0.03;0.03;;;32.50;85.30;;;;;;5054267;28;20173;-62
2023/07/12 08:26:09;;;;;;;0.00;0.00;;;32.40;85.30;;;;;;5052874;28;20243;-62
2023/07/12 08:28:34;;;;;;;0.00;0.00;;;32.90;85.70;;;;;;5053932;28;20808;-62
2023/07/12 08:31:00;;;;;;;0.00;0.00;;;32.50;84.90;;;;;;5054210;28;20177;-62
2023/07/12 08:33:25;;;;;;;0.10;0.10;;;32.20;86.50;;;;;;5054108;28;20550;-62
2023/07/12 08:35:51;;;;;;;0.00;0.00;;;31.70;85.80;;;;;;5053814;28;20708;-62
2023/07/12 08:38:18;;;;;;;0.15;0.15;;;31.30;87.80;;;;;;5053981;28;20269;-62
2023/07/12 08:40:47;;;;;;;0.00;0.00;;;31.20;87.30;;;;;;5053929;28;20205;-62
2023/07/12 08:43:20;;;;;;;0.00;0.00;;;30.90;88.90;;;;;;5053229;28;20177;-62
2023/07/12 08:45:48;;;;;;;0.00;0.00;;;30.80;89.90;;;;;;5053992;28;20478;-62
2023/07/12 08:48:22;;;;;;;0.00;0.00;;;31.40;90.10;;;;;;5053588;28;20177;-62
2023/07/12 08:50:49;;;;;;;0.00;0.00;;;32.00;86.20;;;;;;5053786;28;20238;-62
2023/07/12 08:53:22;;;;;;;0.00;0.00;;;32.20;85.90;;;;;;5053751;28;20170;-62
2023/07/12 08:55:49;;;;;;;0.00;0.00;;;32.30;82.50;;;;;;5053293;28;20182;-62
2023/07/12 08:58:30;;;;;;;0.00;0.00;;;32.30;83.90;;;;;;5053712;28;20273;-63
2023/07/12 09:01:03;;;;;;;0.00;0.00;;;32.00;82.10;;;;;;5053399;28;20716;-62
2023/07/12 09:03:28;;;;;;;0.00;0.00;;;31.50;82.30;;;;;;5033311;28;20221;-62
2023/07/12 09:05:54;;;;;;;0.05;0.05;;;30.90;84.10;;;;;;5037017;28;20237;-62
2023/07/12 09:08:35;;;;;;;0.00;0.00;;;30.40;83.70;;;;;;5053082;28;20178;-63
2023/07/12 09:11:00;;;;;;;0.00;0.00;;;30.60;84.90;;;;;;5053483;28;20178;-63
2023/07/12 09:13:35;;;;;;;0.03;0.03;;;30.80;84.70;;;;;;5052569;28;20272;-62
2023/07/12 09:16:01;;;;;;;0.00;0.00;;;30.30;83.40;;;;;;5053022;28;20168;-62
2023/07/12 09:18:29;;;;;;;0.00;0.00;;;30.00;82.80;;;;;;5053028;28;20185;-62
2023/07/12 09:20:57;;;;;;;0.00;0.00;;;29.90;85.50;;;;;;5053223;28;20178;-62
2023/07/12 09:23:23;;;;;;;0.00;0.00;;;30.00;84.40;;;;;;5052407;28;20714;-62
2023/07/12 09:25:54;;;;;;;0.00;0.00;;;30.00;82.30;;;;;;5052560;28;20213;-62
2023/07/12 09:28:20;;;;;;;0.00;0.00;;;30.20;82.00;;;;;;5051543;28;20221;-62
2023/07/12 09:30:46;;;;;;;0.00;0.00;;;30.40;81.20;;;;;;5052750;28;20181;-62
2023/07/12 09:33:23;;;;;;;0.00;0.00;;;30.90;80.50;;;;;;5052899;28;20338;-61
2023/07/12 09:35:49;;;;;;;0.00;0.00;;;31.20;79.90;;;;;;5052964;28;20213;-61
2023/07/12 09:38:18;;;;;;;0.17;0.17;;;31.10;78.00;;;;;;5052899;28;20653;-62
2023/07/12 09:40:48;;;;;;;0.00;0.00;;;30.90;76.90;;;;;;5052880;28;20200;-63
2023/07/12 09:43:18;;;;;;;0.00;0.00;;;31.00;79.70;;;;;;5052288;28;20680;-63
2023/07/12 09:45:57;;;;;;;0.00;0.00;;;30.80;79.10;;;;;;5052531;28;20213;-63
2023/07/12 09:48:36;;;;;;;0.00;0.00;;;30.80;80.50;;;;;;5052578;28;20190;-63
2023/07/12 09:51:20;;;;;;;0.00;0.00;;;31.10;80.30;;;;;;5052949;28;20181;-64
2023/07/12 09:53:52;;;;;;;0.00;0.00;;;31.70;79.40;;;;;;5052387;28;20185;-63
2023/07/12 09:56:22;;;;;;;0.00;0.00;;;31.80;76.70;;;;;;5051057;28;20181;-64
2023/07/12 09:59:18;;;;;;;0.00;0.00;;;31.50;76.20;;;;;;5052243;28;20165;-63
2023/07/12 10:01:54;;;;;;;0.00;0.00;;;31.20;74.50;;;;;;5052386;28;20652;-63
2023/07/12 10:04:37;;;;;;;1.08;0.70;;;31.30;77.20;;;;;;5053288;28;20188;-63
2023/07/12 10:07:26;;;;;;;0.00;0.00;;;31.20;72.60;;;;;;5054495;28;20204;-64
2023/07/12 10:09:53;;;;;;;0.22;0.22;;;31.00;68.50;;;;;;5052877;28;20181;-63
2023/07/12 10:12:31;;;;;;;0.00;0.00;;;31.00;70.60;;;;;;5072104;28;20181;-63
2023/07/12 10:14:57;;;;;;;0.00;0.00;;;31.00;71.40;;;;;;5053240;28;20712;-63
2023/07/12 10:17:35;;;;;;;0.00;0.00;;;31.00;71.70;;;;;;5051880;28;20838;-63
2023/07/12 10:20:02;;;;;;;0.00;0.00;;;31.30;72.20;;;;;;5052159;28;20275;-63
2023/07/12 10:22:34;;;;;;;0.00;0.00;;;31.40;70.50;;;;;;5051793;28;20177;-63
2023/07/12 10:25:05;;;;;;;0.00;0.00;;;31.40;70.20;;;;;;5059865;28;20173;-64
2023/07/12 10:27:37;;;;;;;0.00;0.00;;;31.50;69.10;;;;;;5071482;28;20363;-63
2023/07/12 10:30:16;;;;;;;0.00;0.00;;;31.80;69.00;;;;;;5071973;28;20601;-63
2023/07/12 10:32:49;;;;;;;0.00;0.00;;;32.00;66.30;;;;;;5071813;28;20635;-63
2023/07/12 10:35:34;;;;;;;0.00;0.00;;;31.80;65.00;;;;;;5071810;28;20222;-64
2023/07/12 10:38:04;;;;;;;0.00;0.00;;;31.90;66.20;;;;;;5071781;28;20710;-64
2023/07/12 10:40:54;;;;;;;0.00;0.00;;;32.10;67.10;;;;;;5071572;28;20186;-63
2023/07/12 10:43:28;;;;;;;0.00;0.00;;;32.00;66.00;;;;;;5071716;28;20169;-63
2023/07/12 10:46:01;;;;;;;0.00;0.00;;;31.70;66.00;;;;;;5067940;28;20262;-64
2023/07/12 10:48:29;;;;;;;0.00;0.00;;;31.80;67.70;;;;;;5051237;28;20618;-63
2023/07/12 10:51:12;;;;;;;0.00;0.00;;;32.00;67.30;;;;;;5051727;28;20201;-64
2023/07/12 10:53:49;;;;;;;0.00;0.00;;;32.20;64.60;;;;;;5050401;28;20178;-63
2023/07/12 10:56:27;;;;;;;0.00;0.00;;;32.30;64.80;;;;;;5050918;28;20181;-63
2023/07/12 10:59:00;;;;;;;0.00;0.00;;;32.40;63.00;;;;;;5051632;28;20255;-64
2023/07/12 11:01:50;;;;;;;0.00;0.00;;;32.30;62.70;;;;;;5051551;28;20543;-64
2023/07/12 11:04:33;;;;;;;0.00;0.00;;;32.10;64.60;;;;;;5052730;28;20188;-64
2023/07/12 11:07:08;;;;;;;0.00;0.00;;;32.30;62.90;;;;;;5051526;28;20267;-63
2023/07/12 11:09:42;;;;;;;0.00;0.00;;;32.20;62.80;;;;;;5050564;28;20182;-64
2023/07/12 11:12:09;;;;;;;0.00;0.00;;;31.70;63.30;;;;;;5031369;28;20845;-65
2023/07/12 11:14:38;;;;;;;0.00;0.00;;;31.70;64.60;;;;;;5038402;28;20181;-63
2023/07/12 11:17:15;;;;;;;0.00;0.00;;;31.80;64.80;;;;;;5050983;28;20200;-63
2023/07/12 11:19:42;;;;;;;0.00;0.00;;;31.80;65.60;;;;;;5051459;28;20177;-62
2023/07/12 11:22:39;;;;;;;0.00;0.00;;;31.70;65.40;;;;;;5051363;28;20668;-62
2023/07/12 11:25:37;;;;;;;0.32;0.32;;;31.80;63.90;;;;;;5050292;28;20192;-63
2023/07/12 11:28:05;;;;;;;0.00;0.00;;;31.70;64.90;;;;;;5050914;28;20221;-63
2023/07/12 11:30:31;;;;;;;0.00;0.00;;;31.80;64.10;;;;;;5055190;28;20177;-63
2023/07/12 11:33:15;;;;;;;0.00;0.00;;;32.20;65.80;;;;;;5055273;28;20573;-63
2023/07/12 11:35:44;;;;;;;0.00;0.00;;;32.30;63.90;;;;;;5055387;28;20181;-62
2023/07/12 11:38:15;;;;;;;0.00;0.00;;;32.00;64.20;;;;;;5055061;28;20224;-63
2023/07/12 11:40:41;;;;;;;0.00;0.00;;;31.80;66.60;;;;;;5055202;28;20707;-63
2023/07/12 11:43:40;;;;;;;0.00;0.00;;;32.10;67.70;;;;;;5054522;28;20261;-63
2023/07/12 11:46:17;;;;;;;0.00;0.00;;;32.70;65.10;;;;;;5042949;28;20221;-63
2023/07/12 11:48:50;;;;;;;0.00;0.00;;;32.90;64.70;;;;;;5055169;28;20177;-64
2023/07/12 11:51:20;;;;;;;0.00;0.00;;;33.00;63.70;;;;;;5054104;28;20185;-64
2023/07/12 11:53:57;;;;;;;0.00;0.00;;;33.10;64.70;;;;;;5053662;28;20182;-64
2023/07/12 11:56:22;;;;;;;0.00;0.00;;;32.60;64.10;;;;;;5054577;28;20177;-64
2023/07/12 11:58:48;;;;;;;0.00;0.00;;;32.30;64.50;;;;;;5054432;28;20181;-63
2023/07/12 12:01:17;;;;;;;0.10;0.00;;;31.80;63.80;;;;;;5053508;28;20177;-63
2023/07/12 12:03:46;;;;;;;0.00;0.00;;;31.50;66.00;;;;;;5034512;28;20540;-64
2023/07/12 12:06:13;;;;;;;0.00;0.00;;;31.60;66.90;;;;;;5034462;28;20276;-65
2023/07/12 12:08:42;;;;;;;0.00;0.00;;;31.50;66.20;;;;;;5034743;28;20213;-64
2023/07/12 12:11:10;;;;;;;0.00;0.00;;;31.30;65.90;;;;;;5034496;28;20171;-65
2023/07/12 12:13:46;;;;;;;0.00;0.00;;;31.40;68.20;;;;;;5034404;28;20300;-64
2023/07/12 12:16:19;;;;;;;0.00;0.00;;;31.30;67.10;;;;;;5034392;28;20189;-64
2023/07/12 12:19:16;;;;;;;0.00;0.00;;;31.40;67.00;;;;;;5034556;28;20265;-64
2023/07/12 12:21:49;;;;;;;0.00;0.00;;;31.50;66.20;;;;;;5029850;28;20459;-63
2023/07/12 12:24:20;;;;;;;0.00;0.00;;;31.60;65.40;;;;;;5041953;28;20288;-63
2023/07/12 12:26:48;;;;;;;0.00;0.00;;;31.60;65.80;;;;;;5054081;28;20282;-63
2023/07/12 12:29:20;;;;;;;0.00;0.00;;;31.80;66.50;;;;;;5054037;28;20221;-63
2023/07/12 12:31:48;;;;;;;0.10;0.10;;;31.80;66.70;;;;;;5052771;28;20185;-63
2023/07/12 12:34:18;;;;;;;0.00;0.00;;;31.80;67.10;;;;;;5053459;28;20174;-63
2023/07/12 12:37:01;;;;;;;0.00;0.00;;;31.60;65.90;;;;;;5073673;28;20242;-62
2023/07/12 12:39:27;;;;;;;0.00;0.00;;;31.60;65.90;;;;;;5058202;28;20242;-63
2023/07/12 12:41:55;;;;;;;0.35;0.25;;;31.60;66.20;;;;;;5053183;28;20182;-62
2023/07/12 12:44:26;;;;;;;0.00;0.00;;;31.60;66.00;;;;;;5053623;28;20261;-62
2023/07/12 12:46:53;;;;;;;0.00;0.00;;;31.60;65.60;;;;;;5053534;28;20209;-62
2023/07/12 12:49:26;;;;;;;0.00;0.00;;;31.50;66.10;;;;;;5053323;28;20652;-63
2023/07/12 12:51:54;;;;;;;0.03;0.03;;;31.50;67.30;;;;;;5053554;28;20545;-63
2023/07/12 12:54:20;;;;;;;0.00;0.00;;;31.40;66.50;;;;;;5052244;28;20174;-63
2023/07/12 12:56:47;;;;;;;0.00;0.00;;;31.50;66.30;;;;;;5062609;28;20181;-63